createdAt,value
2023-11-10T00:02:24.353Z,87.76
2023-11-10T00:04:51.194Z,87.69
2023-11-10T00:07:18.390Z,87.97
2023-11-10T00:09:46.564Z,88.05
2023-11-10T00:12:14.140Z,88.10
2023-11-10T00:14:43.242Z,88.00
2023-11-10T00:17:10.982Z,88.10
2023-11-10T00:19:38.371Z,88.12
2023-11-10T00:22:06.062Z,87.76
2023-11-10T00:24:34.772Z,87.78
2023-11-10T00:27:01.757Z,87.78
2023-11-10T00:29:28.379Z,87.81
2023-11-10T00:31:55.133Z,88.11
2023-11-10T00:34:21.646Z,88.04
2023-11-10T00:36:48.675Z,88.09
2023-11-10T00:39:17.104Z,87.86
2023-11-10T00:41:45.589Z,88.10
2023-11-10T00:44:12.055Z,88.30
2023-11-10T00:46:38.644Z,87.88
2023-11-10T00:49:05.186Z,88.22
2023-11-10T00:51:33.440Z,88.32
2023-11-10T00:54:01.245Z,88.23
2023-11-10T00:56:27.799Z,88.24
2023-11-10T00:58:54.477Z,88.67
2023-11-10T01:01:21.043Z,88.54
2023-11-10T01:03:47.714Z,88.72
2023-11-10T01:06:15.030Z,88.44
2023-11-10T01:08:41.494Z,88.73
2023-11-10T01:11:08.476Z,87.99
2023-11-10T01:13:36.068Z,88.57
2023-11-10T01:16:02.886Z,88.58
2023-11-10T01:18:29.386Z,88.78
2023-11-10T01:20:56.246Z,89.01
2023-11-10T01:23:22.860Z,88.94
2023-11-10T01:25:49.541Z,88.53
2023-11-10T01:28:16.514Z,88.85
2023-11-10T01:30:42.971Z,88.90
2023-11-10T01:33:10.393Z,88.37
2023-11-10T01:35:37.065Z,88.64
2023-11-10T01:38:03.486Z,88.50
2023-11-10T01:40:37.922Z,88.66
2023-11-10T01:43:16.168Z,88.94
2023-11-10T01:45:45.057Z,88.60
2023-11-10T01:48:12.947Z,88.35
2023-11-10T01:50:41.505Z,88.46
2023-11-10T01:53:11.726Z,88.14
2023-11-10T01:55:39.096Z,88.34
2023-11-10T01:58:08.502Z,88.31
2023-11-10T02:00:35.126Z,88.07
2023-11-10T02:03:07.528Z,88.15
2023-11-10T02:05:34.816Z,87.84
2023-11-10T02:08:03.973Z,87.85
2023-11-10T02:10:30.449Z,87.43
2023-11-10T02:12:58.023Z,87.54
2023-11-10T02:15:25.749Z,87.61
2023-11-10T02:17:53.074Z,87.48
2023-11-10T02:20:19.830Z,87.52
2023-11-10T02:22:50.849Z,87.51
2023-11-10T02:25:21.358Z,87.37
2023-11-10T02:27:48.523Z,87.64
2023-11-10T02:30:15.125Z,87.08
2023-11-10T02:32:44.445Z,87.05
2023-11-10T02:35:11.425Z,87.43
2023-11-10T02:37:38.670Z,87.12
2023-11-10T02:40:08.490Z,87.02
2023-11-10T02:42:35.796Z,86.87
2023-11-10T02:45:04.042Z,86.99
2023-11-10T02:47:32.000Z,87.10
2023-11-10T02:49:58.897Z,86.84
2023-11-10T02:52:26.522Z,86.85
2023-11-10T02:54:53.017Z,86.83
2023-11-10T02:57:19.564Z,86.86
2023-11-10T02:59:46.186Z,87.25
2023-11-10T03:02:12.743Z,86.89
2023-11-10T03:04:41.103Z,87.21
2023-11-10T03:07:07.730Z,86.72
2023-11-10T03:09:35.419Z,86.95
2023-11-10T03:12:01.807Z,86.99
2023-11-10T03:14:28.650Z,87.03
2023-11-10T03:16:55.031Z,86.84
2023-11-10T03:19:21.467Z,86.50
2023-11-10T03:21:47.951Z,86.74
2023-11-10T03:24:14.380Z,86.45
2023-11-10T03:26:41.293Z,86.46
2023-11-10T03:29:08.156Z,86.82
2023-11-10T03:31:35.212Z,86.77
2023-11-10T03:34:02.543Z,86.58
2023-11-10T03:36:29.287Z,86.87
2023-11-10T03:38:55.858Z,86.63
2023-11-10T03:41:22.334Z,86.81
2023-11-10T03:43:49.564Z,86.56
2023-11-10T03:46:16.275Z,86.69
2023-11-10T03:48:42.869Z,87.13
2023-11-10T03:51:13.167Z,86.85
2023-11-10T03:53:43.327Z,87.19
2023-11-10T03:56:09.943Z,86.61
2023-11-10T03:58:36.412Z,86.95
2023-11-10T04:01:08.474Z,86.88
2023-11-10T04:03:35.031Z,86.88
2023-11-10T04:06:01.511Z,87.11
2023-11-10T04:08:28.024Z,87.10
2023-11-10T04:10:54.481Z,87.13
2023-11-10T04:13:21.242Z,86.76
2023-11-10T04:15:49.278Z,86.79
2023-11-10T04:18:17.898Z,86.79
2023-11-10T04:20:46.022Z,87.25
2023-11-10T04:23:12.592Z,86.77
2023-11-10T04:25:38.994Z,87.00
2023-11-10T04:28:05.485Z,86.95
2023-11-10T04:30:31.975Z,87.18
2023-11-10T04:32:58.547Z,87.23
2023-11-10T04:35:24.970Z,86.70
2023-11-10T04:37:51.699Z,87.09
2023-11-10T04:40:19.454Z,86.79
2023-11-10T04:42:46.000Z,86.79
2023-11-10T04:45:14.589Z,87.05
2023-11-10T04:47:41.213Z,86.77
2023-11-10T04:50:08.125Z,86.73
2023-11-10T04:52:35.052Z,87.10
2023-11-10T04:55:01.493Z,87.09
2023-11-10T04:57:28.024Z,86.85
2023-11-10T04:59:55.560Z,86.87
2023-11-10T05:02:23.679Z,86.99
2023-11-10T05:04:51.127Z,86.99
2023-11-10T05:07:17.531Z,86.94
2023-11-10T05:09:43.991Z,86.81
2023-11-10T05:12:10.525Z,87.19
2023-11-10T05:14:40.505Z,86.82
2023-11-10T05:17:07.322Z,86.83
2023-11-10T05:19:34.498Z,86.82
2023-11-10T05:22:00.950Z,87.04
2023-11-10T05:24:27.432Z,86.90
2023-11-10T05:26:54.105Z,86.99
2023-11-10T05:29:21.782Z,86.91
2023-11-10T05:31:48.789Z,86.94
2023-11-10T05:34:18.004Z,87.02
2023-11-10T05:36:45.089Z,87.09
2023-11-10T05:39:11.596Z,86.98
2023-11-10T05:41:38.082Z,87.43
2023-11-10T05:44:05.420Z,87.52
2023-11-10T05:46:31.718Z,87.55
2023-11-10T05:48:58.215Z,87.46
2023-11-10T05:51:24.678Z,87.72
2023-11-10T05:53:51.114Z,87.60
2023-11-10T05:56:18.037Z,87.61
2023-11-10T05:58:45.159Z,87.77
2023-11-10T06:01:11.648Z,88.01
2023-11-10T06:03:38.689Z,88.19
2023-11-10T06:06:05.404Z,88.33
2023-11-10T06:08:34.828Z,88.25
2023-11-10T06:11:02.328Z,88.41
2023-11-10T06:13:30.197Z,88.30
2023-11-10T06:16:00.554Z,88.33
2023-11-10T06:18:27.046Z,88.41
2023-11-10T06:20:53.465Z,88.41
2023-11-10T06:23:19.912Z,88.73
2023-11-10T06:25:46.274Z,88.49
2023-11-10T06:28:12.781Z,88.71
2023-11-10T06:30:39.330Z,88.57
2023-11-10T06:33:05.913Z,88.45
2023-11-10T06:35:32.444Z,88.79
2023-11-10T06:37:58.873Z,88.54
2023-11-10T06:40:29.312Z,88.79
2023-11-10T06:42:56.927Z,88.79
2023-11-10T06:45:23.602Z,88.54
2023-11-10T06:47:51.242Z,88.87
2023-11-10T06:50:17.981Z,88.84
2023-11-10T06:52:44.617Z,88.45
2023-11-10T06:55:14.757Z,88.78
2023-11-10T06:57:41.510Z,88.71
2023-11-10T07:00:12.276Z,88.15
2023-11-10T07:02:38.784Z,88.45
2023-11-10T07:05:05.783Z,88.57
2023-11-10T07:07:32.888Z,88.66
2023-11-10T07:10:02.366Z,88.73
2023-11-10T07:12:28.871Z,88.67
2023-11-10T07:14:55.507Z,88.60
2023-11-10T07:17:22.007Z,88.66
2023-11-10T07:19:48.685Z,88.47
2023-11-10T07:22:15.497Z,88.79
2023-11-10T07:24:42.097Z,88.76
2023-11-10T07:27:08.996Z,88.75
2023-11-10T07:29:35.497Z,88.49
2023-11-10T07:32:02.875Z,88.32
2023-11-10T07:34:30.726Z,88.92
2023-11-10T07:36:59.378Z,88.71
2023-11-10T07:39:32.092Z,88.87
2023-11-10T07:41:58.506Z,88.58
2023-11-10T07:44:25.270Z,88.50
2023-11-10T07:46:52.709Z,88.62
2023-11-10T07:49:19.269Z,88.72
2023-11-10T07:51:45.724Z,88.85
2023-11-10T07:54:17.842Z,88.54
2023-11-10T07:56:47.785Z,88.84
2023-11-10T07:59:14.231Z,88.55
2023-11-10T08:01:42.969Z,88.73
2023-11-10T08:04:11.177Z,88.41
2023-11-10T08:06:38.390Z,88.32
2023-11-10T08:09:05.305Z,88.33
2023-11-10T08:11:42.088Z,88.61
2023-11-10T08:14:15.944Z,88.17
2023-11-10T08:16:42.342Z,88.40
2023-11-10T08:19:11.199Z,88.24
2023-11-10T08:21:40.806Z,88.44
2023-11-10T08:24:07.513Z,88.59
2023-11-10T08:26:33.980Z,88.64
2023-11-10T08:29:00.430Z,88.18
2023-11-10T08:31:27.508Z,87.97
2023-11-10T08:33:53.973Z,88.26
2023-11-10T08:36:23.140Z,88.36
2023-11-10T08:38:50.197Z,87.95
2023-11-10T08:41:17.918Z,88.14
2023-11-10T08:43:44.369Z,88.13
2023-11-10T08:46:10.953Z,88.12
2023-11-10T08:48:38.241Z,87.93
2023-11-10T08:51:05.692Z,87.91
2023-11-10T08:53:32.094Z,87.82
2023-11-10T08:55:58.783Z,87.50
2023-11-10T08:58:25.175Z,87.65
2023-11-10T09:00:53.108Z,87.34
2023-11-10T09:03:20.432Z,87.02
2023-11-10T09:05:47.119Z,86.99
2023-11-10T09:08:13.460Z,86.68
2023-11-10T09:10:39.954Z,86.88
2023-11-10T09:13:06.495Z,86.52
2023-11-10T09:15:33.999Z,86.45
2023-11-10T09:18:00.818Z,86.38
2023-11-10T09:20:27.259Z,86.52
2023-11-10T09:22:53.718Z,86.61
2023-11-10T09:25:21.896Z,86.17
2023-11-10T09:27:48.548Z,86.48
2023-11-10T09:30:15.280Z,86.41
2023-11-10T09:32:42.493Z,86.28
2023-11-10T09:35:09.079Z,86.50
2023-11-10T09:37:35.584Z,86.32
2023-11-10T09:40:02.178Z,87.06
2023-11-10T09:42:29.247Z,87.21
2023-11-10T09:44:57.908Z,87.46
2023-11-10T09:47:26.197Z,87.39
2023-11-10T09:49:53.640Z,87.27
2023-11-10T09:52:21.829Z,86.81
2023-11-10T09:54:51.779Z,87.02
2023-11-10T09:57:18.926Z,87.05
2023-11-10T09:59:46.129Z,86.77
2023-11-10T10:02:19.365Z,87.10
2023-11-10T10:04:46.403Z,86.90
2023-11-10T10:07:13.973Z,87.01
2023-11-10T10:09:44.702Z,86.84
2023-11-10T10:12:13.067Z,86.72
2023-11-10T10:14:40.378Z,87.02
2023-11-10T10:17:12.130Z,87.01
2023-11-10T10:19:38.614Z,86.68
2023-11-10T10:22:05.239Z,86.64
2023-11-10T10:24:31.770Z,86.23
2023-11-10T10:26:58.586Z,86.22
2023-11-10T10:29:25.027Z,86.28
2023-11-10T10:31:51.694Z,85.64
2023-11-10T10:34:18.419Z,86.05
2023-11-10T10:36:45.971Z,85.64
2023-11-10T10:39:21.273Z,85.67
2023-11-10T10:41:49.201Z,85.81
2023-11-10T10:44:16.264Z,85.63
2023-11-10T10:46:43.620Z,85.93
2023-11-10T10:49:13.621Z,86.05
2023-11-10T10:51:40.208Z,86.75
2023-11-10T10:54:09.283Z,87.21
2023-11-10T10:56:44.450Z,87.11
2023-11-10T10:59:12.427Z,87.98
2023-11-10T11:01:38.909Z,88.33
2023-11-10T11:04:29.319Z,88.60
2023-11-10T11:07:23.129Z,88.84
2023-11-10T11:09:58.758Z,88.36
2023-11-10T11:12:37.402Z,88.36
2023-11-10T11:15:19.866Z,88.75
2023-11-10T11:18:08.696Z,88.28
2023-11-10T11:20:35.524Z,88.46
2023-11-10T11:23:05.432Z,88.58
2023-11-10T11:25:33.127Z,88.33
2023-11-10T11:28:00.218Z,88.27
2023-11-10T11:30:45.084Z,88.10
2023-11-10T11:33:11.739Z,88.15
2023-11-10T11:35:47.718Z,87.79
2023-11-10T11:38:28.431Z,87.61
2023-11-10T11:40:59.017Z,87.27
2023-11-10T11:43:25.637Z,86.79
2023-11-10T11:45:58.709Z,87.08
2023-11-10T11:48:25.169Z,86.56
2023-11-10T11:50:53.648Z,86.64
2023-11-10T11:53:23.454Z,86.25
2023-11-10T11:55:53.826Z,86.10
2023-11-10T11:58:21.359Z,85.72
2023-11-10T12:00:48.305Z,86.10
2023-11-10T12:03:15.278Z,86.15
2023-11-10T12:05:44.975Z,85.26
2023-11-10T12:08:17.209Z,85.14
2023-11-10T12:10:46.331Z,85.16
2023-11-10T12:13:17.952Z,85.41
2023-11-10T12:15:45.127Z,84.88
2023-11-10T12:18:12.711Z,84.91
2023-11-10T12:20:39.267Z,85.22
2023-11-10T12:23:05.628Z,85.24
2023-11-10T12:25:38.047Z,84.99
2023-11-10T12:28:06.212Z,84.90
2023-11-10T12:30:32.772Z,85.01
2023-11-10T12:32:59.369Z,84.62
2023-11-10T12:35:25.940Z,84.91
2023-11-10T12:37:54.005Z,85.11
2023-11-10T12:40:20.656Z,85.45
2023-11-10T12:42:48.395Z,85.66
2023-11-10T12:45:15.942Z,86.55
2023-11-10T12:47:56.625Z,86.37
2023-11-10T12:50:31.173Z,87.19
2023-11-10T12:52:57.873Z,87.16
2023-11-10T12:55:24.317Z,87.99
2023-11-10T12:57:51.337Z,87.83
2023-11-10T13:00:18.924Z,88.09
2023-11-10T13:02:46.212Z,88.67
2023-11-10T13:05:15.443Z,88.46
2023-11-10T13:07:44.235Z,88.89
2023-11-10T13:10:12.240Z,89.31
2023-11-10T13:12:42.381Z,89.41
2023-11-10T13:15:09.835Z,89.79
2023-11-10T13:17:37.737Z,90.22
2023-11-10T13:20:08.265Z,90.25
2023-11-10T13:22:34.745Z,90.40
2023-11-10T13:25:01.618Z,91.00
2023-11-10T13:27:28.809Z,90.96
2023-11-10T13:29:55.334Z,91.61
2023-11-10T13:32:22.160Z,91.35
2023-11-10T13:34:48.943Z,92.07
2023-11-10T13:37:16.140Z,91.95
2023-11-10T13:39:43.044Z,92.35
2023-11-10T13:42:11.853Z,92.00
2023-11-10T13:44:39.385Z,92.00
2023-11-10T13:47:09.245Z,92.23
2023-11-10T13:49:37.561Z,92.60
2023-11-10T13:52:03.988Z,92.60
2023-11-10T13:54:33.583Z,92.38
2023-11-10T13:57:00.483Z,92.84
2023-11-10T13:59:26.882Z,92.76
2023-11-10T14:01:53.339Z,92.93
2023-11-10T14:04:20.663Z,92.58
2023-11-10T14:06:48.588Z,92.71
2023-11-10T14:09:16.508Z,92.82
2023-11-10T14:11:43.334Z,92.58
2023-11-10T14:14:11.333Z,93.03
2023-11-10T14:16:38.558Z,92.90
2023-11-10T14:19:07.238Z,92.82
2023-11-10T14:21:35.068Z,93.22
2023-11-10T14:24:01.607Z,93.05
2023-11-10T14:26:28.353Z,92.99
2023-11-10T14:28:54.830Z,93.17
2023-11-10T14:31:21.435Z,93.28
2023-11-10T14:33:48.209Z,93.27
2023-11-10T14:36:14.631Z,93.29
2023-11-10T14:38:46.805Z,93.31
2023-11-10T14:41:17.592Z,93.29
2023-11-10T14:43:45.147Z,93.67
2023-11-10T14:46:12.809Z,93.57
2023-11-10T14:48:42.069Z,93.69
2023-11-10T14:51:13.230Z,93.70
2023-11-10T14:53:39.778Z,93.83
2023-11-10T14:56:06.842Z,93.70
2023-11-10T14:58:33.515Z,94.07
2023-11-10T15:01:00.115Z,93.68
2023-11-10T15:03:26.749Z,93.59
2023-11-10T15:05:53.146Z,93.94
2023-11-10T15:08:20.113Z,94.24
2023-11-10T15:10:47.330Z,93.88
2023-11-10T15:13:15.153Z,93.96
2023-11-10T15:15:48.150Z,94.45
2023-11-10T15:18:15.680Z,94.62
2023-11-10T15:20:42.609Z,94.31
2023-11-10T15:23:10.440Z,94.76
2023-11-10T15:25:38.125Z,94.65
2023-11-10T15:28:04.933Z,94.83
2023-11-10T15:30:33.479Z,94.98
2023-11-10T15:33:02.608Z,95.33
2023-11-10T15:35:30.106Z,95.36
2023-11-10T15:37:57.984Z,95.30
2023-11-10T15:40:24.966Z,95.80
2023-11-10T15:42:52.564Z,95.46
2023-11-10T15:45:20.550Z,95.75
2023-11-10T15:47:47.233Z,95.67
2023-11-10T15:50:14.464Z,95.44
2023-11-10T15:52:41.251Z,95.59
2023-11-10T15:55:09.667Z,95.72
2023-11-10T15:57:36.580Z,95.61
2023-11-10T16:00:05.584Z,95.67
2023-11-10T16:02:32.303Z,95.66
2023-11-10T16:04:58.977Z,95.66
2023-11-10T16:07:25.464Z,95.54
2023-11-10T16:09:52.490Z,95.96
2023-11-10T16:12:19.932Z,95.71
2023-11-10T16:14:46.584Z,95.68
2023-11-10T16:17:13.050Z,96.01
2023-11-10T16:19:39.518Z,95.64
2023-11-10T16:22:06.122Z,95.61
2023-11-10T16:24:32.737Z,95.77
2023-11-10T16:26:59.211Z,95.85
2023-11-10T16:29:25.664Z,95.96
2023-11-10T16:31:52.795Z,95.68
2023-11-10T16:34:20.092Z,95.62
2023-11-10T16:36:47.287Z,96.10
2023-11-10T16:39:14.007Z,95.74
2023-11-10T16:41:49.944Z,95.93
2023-11-10T16:44:17.177Z,96.02
2023-11-10T16:46:43.669Z,95.71
2023-11-10T16:49:13.293Z,95.90
2023-11-10T16:51:41.224Z,95.71
2023-11-10T16:54:08.295Z,95.71
2023-11-10T16:56:34.827Z,95.24
2023-11-10T16:59:01.339Z,95.43
2023-11-10T17:01:30.387Z,95.69
2023-11-10T17:03:57.542Z,95.42
2023-11-10T17:06:24.835Z,95.25
2023-11-10T17:08:51.230Z,95.25
2023-11-10T17:11:18.160Z,95.21
2023-11-10T17:13:44.616Z,95.44
2023-11-10T17:16:11.120Z,95.56
2023-11-10T17:18:37.849Z,95.56
2023-11-10T17:21:04.477Z,95.33
2023-11-10T17:23:32.177Z,95.34
2023-11-10T17:26:01.969Z,95.13
2023-11-10T17:28:28.553Z,95.17
2023-11-10T17:30:58.272Z,95.22
2023-11-10T17:33:25.246Z,95.39
2023-11-10T17:35:51.802Z,95.07
2023-11-10T17:38:18.336Z,95.00
2023-11-10T17:40:45.082Z,95.07
2023-11-10T17:43:13.413Z,95.03
2023-11-10T17:45:40.128Z,95.14
2023-11-10T17:48:06.652Z,94.66
2023-11-10T17:50:33.727Z,94.54
2023-11-10T17:53:02.060Z,93.98
2023-11-10T17:55:29.072Z,94.05
2023-11-10T17:57:55.934Z,93.77
2023-11-10T18:00:23.468Z,93.58
2023-11-10T18:02:51.076Z,93.51
2023-11-10T18:05:17.837Z,93.41
2023-11-10T18:07:44.342Z,93.22
2023-11-10T18:10:11.446Z,93.03
2023-11-10T18:12:38.354Z,92.82
2023-11-10T18:15:06.409Z,92.86
2023-11-10T18:17:33.514Z,92.96
2023-11-10T18:20:00.074Z,93.16
2023-11-10T18:22:26.774Z,92.97
2023-11-10T18:24:54.759Z,92.71
2023-11-10T18:27:25.180Z,92.81
2023-11-10T18:29:52.546Z,92.71
2023-11-10T18:32:18.961Z,93.05
2023-11-10T18:34:45.466Z,92.95
2023-11-10T18:37:12.014Z,93.22
2023-11-10T18:39:40.090Z,92.30
2023-11-10T18:42:06.890Z,93.01
2023-11-10T18:44:33.398Z,93.20
2023-11-10T18:46:59.914Z,93.16
2023-11-10T18:49:30.050Z,92.79
2023-11-10T18:51:57.947Z,92.61
2023-11-10T18:54:24.572Z,92.92
2023-11-10T18:56:51.046Z,92.68
2023-11-10T18:59:18.015Z,92.56
2023-11-10T19:01:44.514Z,92.56
2023-11-10T19:04:11.304Z,92.87
2023-11-10T19:06:39.467Z,92.83
2023-11-10T19:09:06.649Z,92.80
2023-11-10T19:11:33.068Z,92.84
2023-11-10T19:13:59.550Z,92.90
2023-11-10T19:16:26.206Z,93.19
2023-11-10T19:18:52.613Z,92.66
2023-11-10T19:21:19.171Z,92.62
2023-11-10T19:23:45.629Z,93.08
2023-11-10T19:26:12.904Z,92.96
2023-11-10T19:28:39.266Z,92.89
2023-11-10T19:31:06.056Z,93.09
2023-11-10T19:33:32.796Z,93.19
2023-11-10T19:35:59.285Z,93.01
2023-11-10T19:38:25.746Z,93.02
2023-11-10T19:40:52.206Z,93.28
2023-11-10T19:43:19.033Z,92.95
2023-11-10T19:45:45.561Z,93.08
2023-11-10T19:48:12.103Z,93.21
2023-11-10T19:50:38.620Z,93.20
2023-11-10T19:53:05.194Z,93.56
2023-11-10T19:55:39.128Z,93.36
2023-11-10T19:59:18.894Z,93.22
2023-11-10T20:03:23.090Z,93.21
2023-11-10T20:05:49.746Z,93.23
2023-11-10T20:08:16.156Z,93.53
2023-11-10T20:10:42.661Z,93.36
2023-11-10T20:13:09.032Z,93.41
2023-11-10T20:15:36.581Z,93.37
2023-11-10T20:18:03.440Z,93.00
2023-11-10T20:20:30.046Z,93.15
2023-11-10T20:22:56.673Z,93.32
2023-11-10T20:25:23.171Z,93.34
2023-11-10T20:27:49.586Z,93.18
2023-11-10T20:30:19.345Z,93.09
2023-11-10T20:32:45.844Z,93.06
2023-11-10T20:35:12.698Z,93.03
2023-11-10T20:37:39.189Z,93.05
2023-11-10T20:40:10.648Z,93.26
2023-11-10T20:42:37.277Z,93.27
2023-11-10T20:45:05.175Z,93.24
2023-11-10T20:47:31.683Z,92.82
2023-11-10T20:49:58.192Z,92.70
2023-11-10T20:52:24.686Z,92.98
2023-11-10T20:54:51.191Z,92.83
2023-11-10T20:57:17.736Z,93.00
2023-11-10T20:59:44.117Z,93.06
2023-11-10T21:02:11.113Z,92.93
2023-11-10T21:04:37.795Z,93.08
2023-11-10T21:07:04.401Z,92.92
2023-11-10T21:09:30.932Z,93.11
2023-11-10T21:11:57.604Z,93.21
2023-11-10T21:14:24.221Z,93.16
2023-11-10T21:16:51.080Z,93.41
2023-11-10T21:19:17.589Z,93.04
2023-11-10T21:21:48.658Z,93.46
2023-11-10T21:24:15.943Z,93.28
2023-11-10T21:26:46.303Z,93.42
2023-11-10T21:29:12.756Z,93.17
2023-11-10T21:31:39.162Z,93.37
2023-11-10T21:34:05.774Z,93.23
2023-11-10T21:36:32.393Z,93.45
2023-11-10T21:38:58.963Z,93.18
2023-11-10T21:41:28.064Z,93.42
2023-11-10T21:43:57.432Z,93.57
2023-11-10T21:46:23.936Z,93.47
2023-11-10T21:48:51.027Z,93.23
2023-11-10T21:51:18.600Z,93.70
2023-11-10T21:53:45.638Z,93.21
2023-11-10T21:56:20.689Z,93.15
2023-11-10T21:58:47.604Z,93.43
2023-11-10T22:01:17.200Z,93.17
2023-11-10T22:03:44.898Z,93.20
2023-11-10T22:06:12.301Z,93.65
2023-11-10T22:08:41.638Z,93.34
2023-11-10T22:11:11.782Z,93.30
2023-11-10T22:13:39.240Z,93.29
2023-11-10T22:16:06.436Z,93.41
2023-11-10T22:18:33.379Z,93.24
2023-11-10T22:20:59.897Z,93.39
2023-11-10T22:23:26.433Z,93.38
2023-11-10T22:25:52.872Z,93.44
2023-11-10T22:28:20.890Z,93.32
2023-11-10T22:30:47.897Z,93.42
2023-11-10T22:33:14.935Z,93.56
2023-11-10T22:35:41.362Z,93.61
2023-11-10T22:38:08.301Z,93.45
2023-11-10T22:40:35.705Z,93.54
2023-11-10T22:43:02.211Z,93.38
2023-11-10T22:45:29.461Z,93.31
2023-11-10T22:47:56.092Z,93.27
2023-11-10T22:50:22.466Z,93.33
2023-11-10T22:52:48.914Z,93.13
2023-11-10T22:55:17.554Z,93.05
2023-11-10T22:57:44.695Z,92.96
2023-11-10T23:00:28.169Z,92.88
2023-11-10T23:02:56.268Z,92.90
2023-11-10T23:05:23.015Z,92.97
2023-11-10T23:07:49.510Z,92.79
2023-11-10T23:10:16.820Z,93.01
2023-11-10T23:12:44.742Z,92.73
2023-11-10T23:15:12.122Z,92.84
2023-11-10T23:17:41.656Z,92.79
2023-11-10T23:20:16.303Z,92.36
2023-11-10T23:22:49.637Z,92.46
2023-11-10T23:25:16.046Z,92.59
2023-11-10T23:27:42.578Z,92.47
2023-11-10T23:30:11.365Z,92.28
2023-11-10T23:32:38.638Z,92.54
2023-11-10T23:35:06.101Z,92.19
2023-11-10T23:37:34.013Z,92.56
2023-11-10T23:40:00.763Z,92.16
2023-11-10T23:42:28.694Z,92.53
2023-11-10T23:44:55.605Z,92.43
2023-11-10T23:47:21.954Z,92.29
2023-11-10T23:49:48.374Z,92.34
2023-11-10T23:52:15.083Z,92.60
2023-11-10T23:54:41.529Z,92.19
2023-11-10T23:57:08.046Z,92.22
2023-11-10T23:59:34.428Z,92.42
